createdAt,value
2022-12-19T00:02:35.079Z,-4.05
2022-12-19T00:07:34.132Z,-4.41
2022-12-19T00:12:34.036Z,-4.94
2022-12-19T00:17:32.737Z,-5.30
2022-12-19T00:22:32.786Z,-4.94
2022-12-19T00:27:31.126Z,-4.41
2022-12-19T00:32:30.500Z,-4.58
2022-12-19T00:37:29.587Z,-4.24
2022-12-19T00:42:28.891Z,-4.24
2022-12-19T00:47:28.081Z,-4.58
2022-12-19T00:52:27.320Z,-4.58
2022-12-19T00:57:27.496Z,-4.94
2022-12-19T01:02:25.849Z,-4.94
2022-12-19T01:07:25.900Z,0.46
2022-12-19T01:12:25.191Z,-0.36
2022-12-19T01:17:24.212Z,-1.07
2022-12-19T01:22:22.395Z,-1.07
2022-12-19T01:27:22.552Z,-1.80
2022-12-19T01:32:20.718Z,-1.89
2022-12-19T01:37:19.898Z,-2.71
2022-12-19T01:42:23.160Z,-2.84
2022-12-19T01:47:18.383Z,-2.18
2022-12-19T01:52:22.311Z,-2.18
2022-12-19T01:57:21.952Z,-2.39
2022-12-19T02:02:16.248Z,-1.79
2022-12-19T02:07:16.641Z,-2.63
2022-12-19T02:12:14.623Z,-2.05
2022-12-19T02:17:13.829Z,-2.05
2022-12-19T02:22:18.749Z,-2.90
2022-12-19T02:27:12.364Z,-3.20
2022-12-19T02:32:11.551Z,-1.81
2022-12-19T02:37:11.719Z,-1.81
2022-12-19T02:42:10.960Z,-2.35
2022-12-19T02:47:08.321Z,-2.67
2022-12-19T02:52:08.423Z,-2.53
2022-12-19T02:57:08.770Z,-1.66
2022-12-19T03:02:07.196Z,-2.16
2022-12-19T03:07:06.278Z,-1.66
2022-12-19T03:12:15.752Z,-1.66
2022-12-19T03:17:05.981Z,-2.53
2022-12-19T03:22:08.347Z,-2.53
2022-12-19T03:27:03.508Z,-2.05
2022-12-19T03:32:05.866Z,-2.46
2022-12-19T03:37:03.057Z,-2.46
2022-12-19T03:42:01.167Z,-1.59
2022-12-19T03:47:00.486Z,-2.05
2022-12-19T03:51:59.610Z,-2.92
2022-12-19T03:56:59.996Z,-2.46
2022-12-19T04:01:58.264Z,-2.89
2022-12-19T04:06:58.357Z,-2.89
2022-12-19T04:11:56.613Z,-2.01
2022-12-19T04:16:55.832Z,-2.01
2022-12-19T04:21:55.022Z,-1.58
2022-12-19T04:26:54.213Z,-1.58
2022-12-19T04:31:54.418Z,-1.58
2022-12-19T04:36:52.575Z,-1.58
2022-12-19T04:41:50.881Z,-2.01
2022-12-19T04:46:50.218Z,-2.46
2022-12-19T04:51:50.461Z,-2.04
2022-12-19T04:56:49.626Z,-2.04
2022-12-19T05:01:48.906Z,-2.04
2022-12-19T05:06:48.058Z,-2.46
2022-12-19T05:11:48.305Z,-2.46
2022-12-19T05:16:46.492Z,-2.46
2022-12-19T05:21:45.747Z,-2.46
2022-12-19T05:26:44.925Z,-2.46
2022-12-19T05:31:44.294Z,-2.04
2022-12-19T05:36:42.391Z,-2.04
2022-12-19T05:41:46.381Z,-2.04
2022-12-19T05:46:41.930Z,-2.46
2022-12-19T05:51:42.100Z,-2.46
2022-12-19T05:56:40.238Z,-2.46
2022-12-19T06:01:39.437Z,-2.46
2022-12-19T06:06:38.698Z,-2.01
2022-12-19T06:11:37.833Z,-2.01
2022-12-19T06:16:37.002Z,-2.01
2022-12-19T06:21:39.886Z,-2.01
2022-12-19T06:26:35.419Z,-2.01
2022-12-19T06:31:34.659Z,-2.46
2022-12-19T06:36:33.805Z,-2.46
2022-12-19T06:41:32.922Z,-0.65
2022-12-19T06:46:33.229Z,-1.07
2022-12-19T06:51:31.507Z,-0.15
2022-12-19T06:56:31.813Z,-1.07
2022-12-19T07:01:30.157Z,-0.99
2022-12-19T07:06:30.320Z,-0.17
2022-12-19T07:11:29.631Z,-0.99
2022-12-19T07:16:28.976Z,-0.17
2022-12-19T07:21:27.099Z,-0.17
2022-12-19T07:26:26.422Z,-0.96
2022-12-19T07:31:25.773Z,-0.15
2022-12-19T07:36:24.905Z,-0.18
2022-12-19T07:41:24.236Z,-0.15
2022-12-19T07:46:23.618Z,-0.15
2022-12-19T07:51:22.744Z,-0.18
2022-12-19T07:56:22.069Z,0.63
2022-12-19T08:01:23.309Z,0.63
2022-12-19T08:06:21.498Z,0.63
2022-12-19T08:12:01.847Z,-0.15
2022-12-19T08:16:19.156Z,0.64
2022-12-19T08:21:18.333Z,0.64
2022-12-19T08:26:17.451Z,-0.17
2022-12-19T08:31:16.621Z,-0.17
2022-12-19T08:36:16.835Z,0.64
2022-12-19T08:41:15.960Z,-0.99
2022-12-19T08:46:15.292Z,0.58
2022-12-19T08:51:13.647Z,-0.17
2022-12-19T08:56:13.969Z,-0.17
2022-12-19T09:01:12.275Z,0.64
2022-12-19T09:06:18.727Z,-0.36
2022-12-19T09:11:11.849Z,-0.94
2022-12-19T09:16:10.165Z,-1.21
2022-12-19T09:21:09.450Z,-1.21
2022-12-19T09:26:09.748Z,-1.50
2022-12-19T09:31:10.038Z,-0.96
2022-12-19T09:36:09.895Z,-1.07
2022-12-19T09:41:07.647Z,-0.25
2022-12-19T09:46:05.992Z,-0.36
2022-12-19T09:51:10.554Z,-0.52
2022-12-19T09:56:04.369Z,-0.72
2022-12-19T10:01:03.517Z,-0.94
2022-12-19T10:07:22.062Z,-1.21
2022-12-19T10:12:39.793Z,-1.21
2022-12-19T10:16:02.103Z,-1.21
2022-12-19T10:21:00.227Z,-1.21
2022-12-19T10:25:59.440Z,-1.50
2022-12-19T10:31:03.226Z,-1.50
2022-12-19T10:36:01.807Z,-0.96
2022-12-19T10:40:58.189Z,-0.96
2022-12-19T10:45:56.392Z,-1.81
2022-12-19T10:50:55.570Z,-1.30
2022-12-19T10:55:55.805Z,-1.66
2022-12-19T11:00:55.139Z,-1.66
2022-12-19T11:05:57.867Z,-1.66
2022-12-19T11:11:44.246Z,-1.66
2022-12-19T11:20:41.766Z,-1.66
2022-12-19T11:29:42.762Z,-1.66
2022-12-19T11:30:25.641Z,-1.19
2022-12-19T11:35:47.919Z,-2.05
2022-12-19T11:40:49.480Z,-1.19
2022-12-19T11:45:47.403Z,-0.72
2022-12-19T11:50:48.630Z,-0.72
2022-12-19T11:55:48.899Z,-1.59
2022-12-19T12:00:45.098Z,-1.14
2022-12-19T12:05:44.305Z,-1.14
2022-12-19T12:14:35.565Z,-1.14
2022-12-19T12:27:47.380Z,-0.71
2022-12-19T12:31:30.604Z,-1.14
2022-12-19T12:31:46.812Z,-0.80
2022-12-19T12:32:00.574Z,-0.72
2022-12-19T12:40:39.834Z,-0.80
2022-12-19T12:45:39.214Z,-0.80
2022-12-19T12:50:38.333Z,-1.19
2022-12-19T12:55:36.663Z,-1.19
2022-12-19T13:00:36.003Z,-0.72
2022-12-19T13:05:35.340Z,-1.19
2022-12-19T13:10:35.471Z,-1.19
2022-12-19T13:15:33.831Z,-1.19
2022-12-19T13:20:31.926Z,-1.19
2022-12-19T13:25:33.254Z,-0.27
2022-12-19T13:30:32.664Z,-0.27
2022-12-19T13:39:28.578Z,-0.27
2022-12-19T13:40:33.063Z,-0.71
2022-12-19T13:45:31.072Z,-0.71
2022-12-19T13:50:28.195Z,-0.71
2022-12-19T13:55:27.363Z,-0.28
2022-12-19T14:00:26.567Z,-0.28
2022-12-19T14:06:05.771Z,-0.71
2022-12-19T14:11:41.094Z,-0.27
2022-12-19T14:15:25.011Z,0.15
2022-12-19T14:22:04.135Z,-0.32
2022-12-19T14:28:14.535Z,-0.32
2022-12-19T14:30:30.702Z,-0.32
2022-12-19T14:36:09.761Z,0.15
2022-12-19T14:40:22.343Z,0.15
2022-12-19T14:53:17.483Z,-0.72
2022-12-19T14:54:11.220Z,-0.27
2022-12-19T14:56:03.713Z,-1.14
2022-12-19T15:00:50.684Z,-0.71
2022-12-19T15:05:16.378Z,-0.27
2022-12-19T15:11:06.264Z,-1.14
2022-12-19T15:15:15.650Z,-0.71
2022-12-19T15:20:12.977Z,-0.71
2022-12-19T15:25:35.983Z,-0.71
2022-12-19T15:30:11.487Z,-0.28
2022-12-19T15:35:11.696Z,-0.75
2022-12-19T15:40:10.906Z,-0.72
2022-12-19T15:45:11.023Z,-0.80
2022-12-19T15:50:10.294Z,-0.44
2022-12-19T15:55:08.484Z,-0.44
2022-12-19T16:00:08.696Z,-0.80
2022-12-19T16:05:08.022Z,-0.80
2022-12-19T16:10:06.099Z,-0.32
2022-12-19T16:15:06.327Z,-0.72
2022-12-19T16:20:05.516Z,-0.72
2022-12-19T16:25:03.704Z,-1.14
2022-12-19T16:30:02.877Z,-1.14
2022-12-19T16:35:02.283Z,-1.14
2022-12-19T16:40:01.409Z,-1.14
2022-12-19T16:45:00.719Z,-0.71
2022-12-19T16:49:59.845Z,-0.28
2022-12-19T16:54:59.181Z,-1.58
2022-12-19T16:59:59.544Z,-1.16
2022-12-19T17:04:58.688Z,-1.16
2022-12-19T17:09:56.838Z,-0.80
2022-12-19T17:14:55.964Z,-0.44
2022-12-19T17:19:54.295Z,-0.44
2022-12-19T17:24:54.428Z,-1.30
2022-12-19T17:29:53.618Z,-0.80
2022-12-19T17:34:52.868Z,-0.32
2022-12-19T17:39:52.075Z,-1.19
2022-12-19T17:44:51.223Z,-1.14
2022-12-19T17:49:50.568Z,-0.72
2022-12-19T17:54:49.728Z,-0.72
2022-12-19T17:59:48.888Z,-0.72
2022-12-19T18:04:47.233Z,-1.14
2022-12-19T18:09:47.364Z,-1.14
2022-12-19T18:14:47.757Z,-0.71
2022-12-19T18:19:46.913Z,-1.16
2022-12-19T18:24:45.029Z,-1.58
2022-12-19T18:30:03.369Z,-1.16
2022-12-19T18:34:44.465Z,-1.58
2022-12-19T18:39:44.590Z,-0.27
2022-12-19T18:44:42.037Z,-0.44
2022-12-19T18:49:41.179Z,-0.32
2022-12-19T18:54:42.417Z,-1.30
2022-12-19T18:59:39.757Z,-1.30
2022-12-19T19:04:39.209Z,-1.30
2022-12-19T19:09:38.405Z,-0.80
2022-12-19T19:14:38.405Z,-0.80
2022-12-19T19:19:37.572Z,-1.19
2022-12-19T19:24:36.688Z,-1.19
2022-12-19T19:29:36.020Z,-1.19
2022-12-19T19:34:36.672Z,-0.72
2022-12-19T19:39:32.832Z,-1.59
2022-12-19T19:44:32.899Z,-1.14
2022-12-19T19:49:35.059Z,-0.71
2022-12-19T19:54:31.395Z,-0.71
2022-12-19T19:59:31.723Z,-0.71
2022-12-19T20:04:30.777Z,-1.58
2022-12-19T20:09:29.986Z,0.06
2022-12-19T20:14:28.155Z,-0.10
2022-12-19T20:19:27.574Z,0.12
2022-12-19T20:24:26.531Z,-0.36
2022-12-19T20:29:26.843Z,-0.65
2022-12-19T20:34:27.421Z,-0.65
2022-12-19T20:39:25.358Z,-0.65
2022-12-19T20:44:24.873Z,-0.96
2022-12-19T20:49:24.013Z,-1.30
2022-12-19T20:54:23.383Z,-0.80
2022-12-19T20:59:21.514Z,-0.80
2022-12-19T21:04:20.858Z,-1.19
2022-12-19T21:09:20.948Z,-0.72
2022-12-19T21:14:19.292Z,-1.59
2022-12-19T21:19:18.447Z,-1.14
2022-12-19T21:24:17.626Z,-1.58
2022-12-19T21:29:17.820Z,-1.58
2022-12-19T21:34:16.008Z,-1.58
2022-12-19T21:39:16.129Z,-0.72
2022-12-19T21:44:13.281Z,-0.36
2022-12-19T21:49:13.410Z,0.12
2022-12-19T21:54:12.773Z,-0.94
2022-12-19T21:59:12.954Z,-1.21
2022-12-19T22:04:11.145Z,-0.65
2022-12-19T22:09:10.375Z,-0.65
2022-12-19T22:14:10.712Z,-0.96
2022-12-19T22:19:10.058Z,-1.30
2022-12-19T22:24:08.170Z,-0.80
2022-12-19T22:29:08.538Z,-0.80
2022-12-19T22:34:07.664Z,-1.19
2022-12-19T22:39:07.007Z,-0.72
2022-12-19T22:44:06.125Z,-1.59
2022-12-19T22:49:04.436Z,-1.14
2022-12-19T22:54:05.583Z,-1.14
2022-12-19T22:59:02.891Z,-1.14
2022-12-19T23:04:03.131Z,-0.28
2022-12-19T23:09:01.428Z,0.74
2022-12-19T23:14:00.567Z,0.46
2022-12-19T23:18:59.865Z,0.64
2022-12-19T23:23:59.178Z,0.66
2022-12-19T23:28:59.551Z,-0.15
2022-12-19T23:33:57.670Z,0.66
2022-12-19T23:38:56.805Z,-0.18
2022-12-19T23:43:55.934Z,-0.18
2022-12-19T23:48:55.279Z,0.63
2022-12-19T23:53:54.438Z,0.63
2022-12-19T23:58:54.584Z,0.63
